MUHG

Frank Pais International Airport

Holguin, Cuba
MUHG 151100Z 1512/1612 VRB05KT 9000 SCT020 BECMG 1513/1515 09012KT TEMPO 1516/1524 5000 TSRA FEW018CB BKN020 BECMG 1601/1603 VRB05KT
Issued Valid From Valid To
Aug-15 @ 11:00 UTC
(2 hours ago)
Aug-15 @ 12:00 UTC
(40 minutes ago)
Aug-16 @ 12:00 UTC
(in 23 hours)
Aug-15 @ 12:00 to Aug-15 @ 13:00
MUHG 151100Z 1512/1612 VRB05KT 9000 SCT020
Wind Visibility Clouds
Variable at 5 knots 8,996 meters
  • Scattered at 2,000' AGL
Becoming Aug-15 @ 13:00 to Aug-16 @ 01:00
BECMG 1513/1515 09012KT
Wind Visibility Clouds
90° at 12 knots 8,996 meters
  • Scattered at 2,000' AGL
Temporary Aug-15 @ 16:00 to Aug-16 @ 00:00
TEMPO 1516/1524 5000 TSRA FEW018CB BKN020
Visibility Clouds Conditions
5,005 meters
  • Few at 1,800' AGL
  • Broken at 2,000' AGL
  • Thunderstorm
  • Rain
Becoming Aug-16 @ 01:00 to Aug-16 @ 12:00
BECMG 1601/1603 VRB05KT
Wind Visibility Clouds
Variable at 5 knots 8,996 meters
  • Scattered at 2,000' AGL
MUHG 151100Z 1512/1612 VRB05KT 9000 SCT020 BECMG 1513/1515 09012KT TEMPO 1516/1524 5000 TSRA FEW018CB BKN020 BECMG 1601/1603 VRB05KT
Issued Aug-15 @ 11:00 UTC
(2 hours ago)
Valid From Aug-15 @ 12:00 UTC
(40 minutes ago)
Valid To Aug-16 @ 12:00 UTC
(in 23 hours)
Aug-15 @ 12:00 - Aug-15 @ 13:00
Wind Visibility
Variable at 5 knots 8,996 meters
Clouds
  • Scattered at 2,000' AGL
Becoming Aug-15 @ 13:00 - Aug-16 @ 01:00
Wind Visibility
90° at 12 knots 8,996 meters
Clouds
  • Scattered at 2,000' AGL
Temporary Aug-15 @ 16:00 - Aug-16 @ 00:00
Clouds
  • Few at 1,800' AGL
  • Broken at 2,000' AGL
Conditions
  • Thunderstorm
  • Rain
Becoming Aug-16 @ 01:00 - Aug-16 @ 12:00
Wind Visibility
Variable at 5 knots 8,996 meters
Clouds
  • Scattered at 2,000' AGL